Flight Track Log - Related Links

Times and Time Zones

All times are in EDT time to prevent confusion due to time zone crossing. See the NKS200 flight status page for this flight to view local times or setup timezone preferences in your user account.


Time Position Orientation Groundspeed Altitude Reporting Facility
EDT Latitude Longitude Course Direction KTS MPH feet Rate Location/Type
Mon 07:36:01 AM 29.9711 -95.3477 157° South 165 190  Level FlightAware ADS-B
Mon 07:36:17 AM 29.9600 -95.3412 153° Southeast 165 190 500 2,286 Climbing FlightAware ADS-B
Mon 07:36:22 AM 29.9563 -95.3389 152° Southeast 164 189 800 3,000 Climbing FlightAware ADS-B
Mon 07:36:27 AM 29.9537 -95.3364 140° Southeast 162 186 1,000 2,727 Climbing FlightAware ADS-B
Mon 07:36:33 AM 29.9513 -95.3326 126° Southeast 157 181 1,300 2,769 Climbing FlightAware ADS-B
Mon 07:36:40 AM 29.9497 -95.3266 107° East 155 178 1,600 2,143 Climbing FlightAware ADS-B
Mon 07:36:47 AM 29.9500 -95.3206 87° East 162 186 1,800 1,200 Climbing FlightAware ADS-B
Mon 07:37:10 AM 29.9621 -95.3040 50° Northeast 196 226 2,200 1,050 Climbing FlightAware ADS-B
Mon 07:37:27 AM 29.9785 -95.2966 21° North 226 260 2,500 1,125 Climbing FlightAware ADS-B
Mon 07:37:42 AM 29.9953 -95.2888 22° Northeast 259 298 2,800 1,742 Climbing FlightAware ADS-B
Mon 07:37:58 AM 30.0130 -95.2804 22° Northeast 274 315 3,400 2,625 Climbing FlightAware ADS-B
Mon 07:38:14 AM 30.0322 -95.2718 21° North 283 326 4,200 3,290 Climbing FlightAware ADS-B
Mon 07:38:29 AM 30.0516 -95.2634 21° North 287 330 5,100 3,400 Climbing FlightAware ADS-B
Mon 07:38:44 AM 30.0706 -95.2551 21° North 290 334 5,900 3,400 Climbing FlightAware ADS-B
Mon 07:38:59 AM 30.0894 -95.2466 21° North 292 336 6,800 3,310 Climbing FlightAware ADS-B
Mon 07:39:13 AM 30.1069 -95.2382 23° Northeast 295 339 7,500 3,103 Climbing FlightAware ADS-B
Mon 07:39:28 AM 30.1262 -95.2289 23° Northeast 298 343 8,300 3,400 Climbing FlightAware ADS-B
Mon 07:39:43 AM 30.1453 -95.2199 22° Northeast 297 342 9,200 3,300 Climbing FlightAware ADS-B
Mon 07:39:48 AM 30.1517 -95.2173 19° North 296 341 9,400 2,824 Climbing FlightAware ADS-B
Mon 07:40:00 AM 30.1676 -95.2119 16° North 298 343 10,000 1,953 Climbing FlightAware ADS-B
Mon 07:40:31 AM 30.2096 -95.1981 16° North 330 380 10,800 1,279 Climbing FlightAware ADS-B
Mon 07:41:01 AM 30.2579 -95.1821 16° North 363 418 11,300 1,574 Climbing FlightAware ADS-B
Mon 07:41:32 AM 30.3076 -95.1658 16° North 376 433 12,400 2,164 Climbing FlightAware ADS-B
Mon 07:42:02 AM 30.3596 -95.1488 16° North 386 444 13,500 2,400 Climbing FlightAware ADS-B
Mon 07:42:32 AM 30.4113 -95.1320 16° North 386 444 14,800 2,323 Climbing FlightAware ADS-B
Mon 07:43:04 AM 30.4660 -95.1140 16° North 390 449 15,900 1,969 Climbing FlightAware ADS-B
Mon 07:43:36 AM 30.5221 -95.0957 16° North 395 455 16,900 1,869 Climbing FlightAware ADS-B
Mon 07:44:05 AM 30.5742 -95.0786 16° North 402 463 17,800 2,053 Climbing FlightAware ADS-B
Mon 07:44:14 AM 30.5902 -95.0722 19° North 402 463 18,200 2,250 Climbing FlightAware ADS-B
Mon 07:44:21 AM 30.6015 -95.0667 23° Northeast 403 464 18,400 1,737 Climbing FlightAware ADS-B
Mon 07:44:52 AM 30.6537 -95.0345 28° Northeast 412 474 19,300 1,672 Climbing FlightAware ADS-B
Mon 07:45:22 AM 30.7049 -95.0025 28° Northeast 415 478 20,100 1,672 Climbing FlightAware ADS-B
Mon 07:45:53 AM 30.7575 -94.9697 28° Northeast 420 483 21,000 1,645 Climbing FlightAware ADS-B
Mon 07:46:24 AM 30.8112 -94.9363 28° Northeast 423 487 21,800 1,377 Climbing FlightAware ADS-B
Mon 07:46:54 AM 30.8636 -94.9037 28° Northeast 430 495 22,400 1,180 Climbing FlightAware ADS-B
Mon 07:47:25 AM 30.9169 -94.8704 28° Northeast 437 503 23,000 1,279 Climbing FlightAware ADS-B
Mon 07:47:55 AM 30.9713 -94.8365 28° Northeast 441 507 23,700 1,300 Climbing FlightAware ADS-B
Mon 07:48:25 AM 31.0258 -94.8024 28° Northeast 445 512 24,300 1,300 Climbing FlightAware ADS-B
Mon 07:48:55 AM 31.0804 -94.7682 28° Northeast 447 514 25,000 1,475 Climbing FlightAware ADS-B
Mon 07:49:26 AM 31.1360 -94.7332 28° Northeast 447 514 25,800 1,279 Climbing FlightAware ADS-B
Mon 07:49:56 AM 31.1915 -94.6979 29° Northeast 453 521 26,300 900 Climbing FlightAware ADS-B
Mon 07:50:26 AM 31.2467 -94.6597 31° Northeast 461 531 26,700 787 Climbing FlightAware ADS-B
Mon 07:50:57 AM 31.3028 -94.6201 31° Northeast 468 539 27,100 984 Climbing FlightAware ADS-B
Mon 07:51:27 AM 31.3590 -94.5809 31° Northeast 468 539 27,700 1,200 Climbing FlightAware ADS-B
Mon 07:51:57 AM 31.4158 -94.5415 31° Northeast 470 541 28,300 1,100 Climbing FlightAware ADS-B
Mon 07:52:27 AM 31.4728 -94.5021 31° Northeast 476 548 28,800 762 Climbing FlightAware ADS-B
Mon 07:53:00 AM 31.5355 -94.4585 31° Northeast 484 557 29,100 667 Climbing FlightAware ADS-B
Mon 07:53:30 AM 31.5923 -94.4190 31° Northeast 490 564 29,500 837 Climbing FlightAware ADS-B
Mon 07:53:43 AM 31.6198 -94.4021 28° Northeast 487 560 29,700 818 Climbing FlightAware ADS-B
Mon 07:54:14 AM 31.6845 -94.3727 21° North 485 558 30,100 952 Climbing FlightAware ADS-B
Mon 07:54:46 AM 31.7513 -94.3430 21° North 486 559 30,700 968 Climbing FlightAware ADS-B
Mon 07:55:16 AM 31.8148 -94.3147 21° North 488 562 31,100 968 Climbing FlightAware ADS-B
Mon 07:55:48 AM 31.8808 -94.2852 21° North 487 560 31,700 1,065 Climbing FlightAware ADS-B
Mon 07:56:18 AM 31.9453 -94.2563 21° North 487 560 32,200 1,082 Climbing FlightAware ADS-B
Mon 07:56:49 AM 32.0094 -94.2278 21° North 483 556 32,800 1,180 Climbing FlightAware ADS-B
Mon 07:57:19 AM 32.0730 -94.1994 21° North 480 552 33,400 1,300 Climbing FlightAware ADS-B
Mon 07:57:49 AM 32.1355 -94.1713 21° North 475 547 34,100 1,161 Climbing FlightAware ADS-B
Mon 07:58:21 AM 32.2010 -94.1420 21° North 476 548 34,600 1,065 Climbing FlightAware ADS-B
Mon 07:58:51 AM 32.2626 -94.1143 21° North 471 542 35,200 1,082 Climbing FlightAware ADS-B
Mon 07:59:22 AM 32.3251 -94.0862 21° North 469 540 35,700 971 Climbing FlightAware ADS-B
Mon 07:59:59 AM 32.3870 -94.0580 21° North 465 535 36,300 1,000 Climbing FlightAware ADS-B
Mon 08:00:22 AM 32.4459 -94.0317 21° North 466 536 36,700 778 Climbing FlightAware ADS-B
Mon 08:00:53 AM 32.5072 -94.0040 21° North 461 531 37,000 290 Climbing FlightAware ADS-B
Mon 08:01:24 AM 32.5490 -93.9850 21° North 462 532 37,000  Level FlightAware ADS-B
Mon 08:02:08 AM 32.6551 -93.9372 21° North 458 527 37,000  Level FlightAware ADS-B
Mon 08:02:38 AM 32.7151 -93.9100 21° North 458 527 37,000  Level FlightAware ADS-B
Mon 08:03:08 AM 32.7752 -93.8826 21° North 457 526 37,000  Level FlightAware ADS-B
Mon 08:03:56 AM 32.8686 -93.8401 21° North 456 525 37,000  Level FlightAware ADS-B
Mon 08:04:26 AM 32.9278 -93.8131 21° North 456 525 37,000  Level FlightAware ADS-B
Mon 08:04:57 AM 32.9886 -93.7853 21° North 456 525 37,000  Level FlightAware ADS-B
Mon 08:05:27 AM 33.0481 -93.7581 21° North 458 527 37,000  Level FlightAware ADS-B
Mon 08:05:58 AM 33.1092 -93.7301 21° North 458 527 37,000  Level FlightAware ADS-B
Mon 08:06:43 AM 33.1880 -93.6940 21° North 460 529 37,000  Level FlightAware ADS-B
Mon 08:06:58 AM 33.2294 -93.6750 21° North 459 528 37,000  Level FlightAware ADS-B
Mon 08:07:30 AM 33.2926 -93.6459 21° North 461 531 37,000  Level FlightAware ADS-B
Mon 08:08:19 AM 33.3901 -93.6009 21° North 461 531 37,000  Level FlightAware ADS-B
Mon 08:08:58 AM 33.4600 -93.5690 21° North 461 531 37,000  Level FlightAware ADS-B
Mon 08:09:34 AM 33.5403 -93.5315 21° North 461 531 37,000  Level FlightAware ADS-B
Mon 08:10:05 AM 33.6006 -93.5036 21° North 460 529 37,000  Level FlightAware ADS-B
Mon 08:10:38 AM 33.6665 -93.4729 21° North 460 529 37,000  Level FlightAware ADS-B
Mon 08:11:33 AM 33.7520 -93.4330 21° North 460 529 37,000  Level FlightAware ADS-B
Mon 08:12:08 AM 33.8380 -93.3930 21° North 460 529 37,000  Level FlightAware ADS-B
Mon 08:12:53 AM 33.9270 -93.3520 21° North 460 529 37,000  Level FlightAware ADS-B
Mon 08:13:38 AM 34.0050 -93.3150 21° North 461 531 37,000  Level FlightAware ADS-B
Mon 08:14:11 AM 34.0750 -93.2820 21° North 461 531 37,000  Level FlightAware ADS-B
Mon 08:14:52 AM 34.1700 -93.2370 21° North 462 532 37,000  Level FlightAware ADS-B
Mon 08:15:46 AM 34.2690 -93.1910 21° North 462 532 37,000  Level FlightAware ADS-B
Mon 08:16:25 AM 34.3570 -93.1490 22° Northeast 463 533 37,000  Level FlightAware ADS-B
Mon 08:16:57 AM 34.4200 -93.1190 21° North 462 532 37,000  Level FlightAware ADS-B
Mon 08:17:32 AM 34.4910 -93.0860 21° North 463 533 37,000  Level FlightAware ADS-B
Mon 08:18:05 AM 34.5560 -93.0550 21° North 463 533 37,000  Level FlightAware ADS-B
Mon 08:18:44 AM 34.6340 -93.0180 21° North 462 532 37,000  Level FlightAware ADS-B
Mon 08:19:16 AM 34.6980 -92.9870 22° Northeast 463 533 37,000  Level FlightAware ADS-B
Mon 08:19:53 AM 34.7700 -92.9530 21° North 463 533 37,000  Level FlightAware ADS-B
Mon 08:20:34 AM 34.8540 -92.9120 22° Northeast 464 534 37,000  Level FlightAware ADS-B
Mon 08:21:09 AM 34.9240 -92.8790 21° North 465 535 37,000  Level FlightAware ADS-B
Mon 08:21:45 AM 34.9960 -92.8440 22° Northeast 465 535 37,000  Level FlightAware ADS-B
Mon 08:22:17 AM 35.0540 -92.8170 21° North 465 535 37,000  Level FlightAware ADS-B
Mon 08:22:55 AM 35.1370 -92.7760 22° Northeast 466 536 37,000  Level FlightAware ADS-B
Mon 08:23:28 AM 35.2020 -92.7450 21° North 466 536 37,000  Level FlightAware ADS-B
Mon 08:24:03 AM 35.2710 -92.7120 21° North 466 536 37,000  Level FlightAware ADS-B
Mon 08:24:41 AM 35.3480 -92.6740 22° Northeast 468 539 37,000  Level FlightAware ADS-B
Mon 08:25:11 AM 35.4090 -92.6450 21° North 468 539 37,000  Level FlightAware ADS-B
Mon 08:25:51 AM 35.4900 -92.6050 22° Northeast 467 537 37,000  Level FlightAware ADS-B
Mon 08:26:23 AM 35.5530 -92.5740 22° Northeast 467 537 37,000  Level FlightAware ADS-B
Mon 08:26:59 AM 35.6270 -92.5380 22° Northeast 467 537 37,000  Level FlightAware ADS-B
Mon 08:27:35 AM 35.6980 -92.5030 22° Northeast 467 537 37,000  Level FlightAware ADS-B
Mon 08:28:09 AM 35.7660 -92.4700 21° North 467 537 37,000  Level FlightAware ADS-B
Mon 08:28:44 AM 35.8370 -92.4350 22° Northeast 466 536 37,000  Level FlightAware ADS-B
Mon 08:29:21 AM 35.9110 -92.3990 22° Northeast 466 536 37,000  Level FlightAware ADS-B
Mon 08:29:56 AM 35.9800 -92.3650 22° Northeast 466 536 37,000  Level FlightAware ADS-B
Mon 08:30:28 AM 36.0440 -92.3330 22° Northeast 467 537 37,000  Level FlightAware ADS-B
Mon 08:31:05 AM 36.1150 -92.2980 22° Northeast 467 537 37,000  Level FlightAware ADS-B
Mon 08:31:41 AM 36.1920 -92.2600 22° Northeast 467 537 37,000  Level FlightAware ADS-B
Mon 08:32:17 AM 36.2570 -92.2280 22° Northeast 467 537 37,000  Level FlightAware ADS-B
Mon 08:32:42 AM 36.3130 -92.1990 23° Northeast 467 537 37,000 88 Level FlightAware ADS-B
Mon 08:33:25 AM 36.4010 -92.1560 21° North 461 531 37,100  Climbing FlightAware ADS-B
Mon 08:33:59 AM 36.4680 -92.1220 22° Northeast 459 528 37,000 -83 Descending FlightAware ADS-B
Mon 08:34:37 AM 36.5420 -92.0850 22° Northeast 457 526 37,000  Level FlightAware ADS-B
Mon 08:35:08 AM 36.6000 -92.0560 22° Northeast 456 525 37,000  Level FlightAware ADS-B
Mon 08:35:41 AM 36.6660 -92.0230 22° Northeast 455 524 37,000  Level FlightAware ADS-B
Mon 08:36:21 AM 36.7450 -91.9830 22° Northeast 454 522 37,000  Level FlightAware ADS-B
Mon 08:36:53 AM 36.8070 -91.9510 22° Northeast 454 522 37,000  Level FlightAware ADS-B
Mon 08:37:29 AM 36.8780 -91.9150 22° Northeast 455 524 37,000  Level FlightAware ADS-B
Mon 08:38:06 AM 36.9490 -91.8800 22° Northeast 456 525 37,000  Level FlightAware ADS-B
Mon 08:38:41 AM 37.0190 -91.8440 22° Northeast 457 526 37,000  Level FlightAware ADS-B
Mon 08:39:13 AM 37.0820 -91.8120 22° Northeast 457 526 37,000  Level FlightAware ADS-B
Mon 08:39:49 AM 37.1510 -91.7770 22° Northeast 456 525 37,000  Level FlightAware ADS-B
Mon 08:40:25 AM 37.2220 -91.7400 23° Northeast 454 522 37,000  Level FlightAware ADS-B
Mon 08:41:01 AM 37.2920 -91.7050 22° Northeast 453 521 37,000  Level FlightAware ADS-B
Mon 08:41:32 AM 37.3510 -91.6740 23° Northeast 452 520 37,000  Level FlightAware ADS-B
Mon 08:42:09 AM 37.4230 -91.6380 22° Northeast 451 519 37,000  Level FlightAware ADS-B
Mon 08:42:43 AM 37.4890 -91.6040 22° Northeast 452 520 37,000  Level FlightAware ADS-B
Mon 08:43:16 AM 37.5480 -91.5730 23° Northeast 452 520 37,000  Level FlightAware ADS-B
Mon 08:43:53 AM 37.6240 -91.5340 22° Northeast 453 521 37,000  Level FlightAware ADS-B
Mon 08:44:30 AM 37.6960 -91.4960 23° Northeast 457 526 37,000  Level FlightAware ADS-B
Mon 08:45:03 AM 37.7580 -91.4640 22° Northeast 459 528 37,000  Level FlightAware ADS-B
Mon 08:45:39 AM 37.8320 -91.4260 22° Northeast 461 531 37,000  Level FlightAware ADS-B
Mon 08:46:13 AM 37.8960 -91.3920 23° Northeast 464 534 37,000  Level FlightAware ADS-B
Mon 08:46:52 AM 37.9730 -91.3520 22° Northeast 466 536 37,000  Level FlightAware ADS-B
Mon 08:47:24 AM 38.0380 -91.3180 22° Northeast 468 539 37,000  Level FlightAware ADS-B
Mon 08:47:59 AM 38.1110 -91.2800 22° Northeast 468 539 37,000  Level FlightAware ADS-B
Mon 08:48:35 AM 38.1810 -91.2430 23° Northeast 469 540 37,000  Level FlightAware ADS-B
Mon 08:49:10 AM 38.2500 -91.2070 22° Northeast 469 540 37,000  Level FlightAware ADS-B
Mon 08:49:43 AM 38.3160 -91.1720 23° Northeast 468 539 37,000  Level FlightAware ADS-B
Mon 08:50:21 AM 38.3890 -91.1330 23° Northeast 468 539 37,000  Level FlightAware ADS-B
Mon 08:50:54 AM 38.4600 -91.0960 22° Northeast 468 539 37,000  Level FlightAware ADS-B
Mon 08:51:29 AM 38.5300 -91.0580 23° Northeast 466 536 37,000  Level FlightAware ADS-B
Mon 08:52:06 AM 38.6030 -91.0200 22° Northeast 467 537 37,000  Level FlightAware ADS-B
Mon 08:52:38 AM 38.6670 -90.9860 23° Northeast 463 533 37,000 -321 Level FlightAware ADS-B
Mon 08:53:02 AM 38.7170 -90.9710 13° North 435 501 36,700 -1,684 Descending FlightAware ADS-B
Mon 08:53:35 AM 38.7830 -90.9660 North 433 498 35,400 -1,543 Descending FlightAware ADS-B
Mon 08:54:12 AM 38.8580 -90.9600 North 447 514 34,900 -353 Descending FlightAware ADS-B
Mon 08:54:43 AM 38.9210 -90.9540 North 447 514 35,000 88 Climbing FlightAware ADS-B
Mon 08:55:20 AM 38.9990 -90.9470 North 441 507 35,000  Level FlightAware ADS-B
Mon 08:55:56 AM 39.0710 -90.9410 North 440 506 35,000  Level FlightAware ADS-B
Mon 08:56:30 AM 39.1400 -90.9230 11° North 469 540 35,000  Level FlightAware ADS-B
Mon 08:57:03 AM 39.2060 -90.8800 27° Northeast 481 554 35,000  Level FlightAware ADS-B
Mon 08:57:40 AM 39.2790 -90.8330 26° Northeast 479 551 35,000  Level FlightAware ADS-B
Mon 08:58:15 AM 39.3490 -90.7880 26° Northeast 479 551 35,000  Level FlightAware ADS-B
Mon 08:58:45 AM 39.4070 -90.7510 26° Northeast 478 550 35,000  Level FlightAware ADS-B
Mon 08:59:26 AM 39.4880 -90.6980 27° Northeast 476 548 35,000  Level FlightAware ADS-B
Mon 08:59:57 AM 39.5460 -90.6600 27° Northeast 474 545 35,000  Level FlightAware ADS-B
Mon 09:00:35 AM 39.6240 -90.6100 26° Northeast 475 547 35,000  Level FlightAware ADS-B
Mon 09:01:09 AM 39.6920 -90.5660 26° Northeast 474 545 35,000 -917 Level FlightAware ADS-B
Mon 09:01:47 AM 39.7620 -90.5200 27° Northeast 471 542 33,900 -1,622 Descending FlightAware ADS-B
Mon 09:02:23 AM 39.8320 -90.4740 27° Northeast 468 539 33,000 -740 Descending FlightAware ADS-B
Mon 09:03:00 AM 39.9100 -90.4240 26° Northeast 473 544 33,000  Level FlightAware ADS-B
Mon 09:03:38 AM 39.9790 -90.3780 27° Northeast 470 541 33,000  Level FlightAware ADS-B
Mon 09:04:15 AM 40.0530 -90.3290 27° Northeast 470 541 33,000  Level FlightAware ADS-B
Mon 09:04:53 AM 40.1290 -90.2790 27° Northeast 470 541 33,000  Level FlightAware ADS-B
Mon 09:05:30 AM 40.1980 -90.2340 26° Northeast 470 541 33,000  Level FlightAware ADS-B
Mon 09:06:03 AM 40.2620 -90.1910 27° Northeast 470 541 33,000  Level FlightAware ADS-B
Mon 09:06:37 AM 40.3270 -90.1480 27° Northeast 469 540 33,000  Level FlightAware ADS-B
Mon 09:07:14 AM 40.4000 -90.1000 27° Northeast 470 541 33,000  Level FlightAware ADS-B
Mon 09:07:51 AM 40.4730 -90.0510 27° Northeast 470 541 33,000  Level FlightAware ADS-B
Mon 09:08:27 AM 40.5400 -90.0060 27° Northeast 470 541 33,000  Level FlightAware ADS-B
Mon 09:08:58 AM 40.6020 -89.9650 27° Northeast 470 541 33,000  Level FlightAware ADS-B
Mon 09:09:34 AM 40.6730 -89.9170 27° Northeast 470 541 33,000  Level FlightAware ADS-B
Mon 09:10:12 AM 40.7450 -89.8690 27° Northeast 469 540 33,000 -86 Level FlightAware ADS-B
Mon 09:10:44 AM 40.8090 -89.8260 27° Northeast 470 541 32,900 -1,667 Descending FlightAware ADS-B
Mon 09:11:06 AM 40.8520 -89.7970 27° Northeast 485 558 31,500 -3,896 Descending FlightAware ADS-B
Mon 09:12:01 AM 40.9620 -89.7220 27° Northeast 500 575 27,900 -3,587 Descending FlightAware ADS-B
Mon 09:12:38 AM 41.0370 -89.6710 27° Northeast 493 567 26,000 -2,789 Descending FlightAware ADS-B
Mon 09:13:12 AM 41.1020 -89.6270 27° Northeast 483 556 24,600 -1,967 Descending FlightAware ADS-B
Mon 09:13:39 AM 41.1500 -89.5830 35° Northeast 469 540 24,000 -766 Descending FlightAware ADS-B
Mon 09:13:59 AM 41.1790 -89.5370 50° Northeast 456 525 24,000 -1,821 Level FlightAware ADS-B
Mon 09:14:35 AM 41.2180 -89.4450 61° Northeast 459 528 22,300 -2,466 Descending FlightAware ADS-B
Mon 09:15:12 AM 41.2540 -89.3550 62° Northeast 446 513 21,000 -2,418 Descending FlightAware ADS-B
Mon 09:15:42 AM 41.2830 -89.2830 62° Northeast 443 510 19,600 -2,471 Descending FlightAware ADS-B
Mon 09:16:20 AM 41.3180 -89.1950 62° Northeast 432 497 18,200 -2,314 Descending FlightAware ADS-B
Mon 09:16:52 AM 41.3480 -89.1220 61° Northeast 428 493 16,900 -2,261 Descending FlightAware ADS-B
Mon 09:17:29 AM 41.3810 -89.0370 63° Northeast 412 474 15,600 -2,083 Descending FlightAware ADS-B
Mon 09:18:04 AM 41.4120 -88.9600 62° Northeast 400 460 14,400 -2,055 Descending FlightAware ADS-B
Mon 09:18:42 AM 41.4450 -88.8770 62° Northeast 386 444 13,100 -2,000 Descending FlightAware ADS-B
Mon 09:19:16 AM 41.4740 -88.8050 62° Northeast 373 429 12,000 -1,800 Descending FlightAware ADS-B
Mon 09:19:52 AM 41.5010 -88.7370 62° Northeast 361 415 11,000 -1,167 Descending FlightAware ADS-B
Mon 09:20:28 AM 41.5290 -88.6660 62° Northeast 329 379 10,600 -353 Descending FlightAware ADS-B
Mon 09:21:00 AM 41.5500 -88.6120 63° Northeast 303 349 10,600 -188 Level FlightAware ADS-B
Mon 09:21:32 AM 41.5700 -88.5610 62° Northeast 298 343 10,400 -750 Descending FlightAware ADS-B
Mon 09:21:56 AM 41.5850 -88.5240 62° Northeast 293 337 9,900 -1,304 Descending FlightAware ADS-B
Mon 09:22:18 AM 41.6000 -88.4880 61° Northeast 290 334 9,400 -1,500 Descending FlightAware ADS-B
Mon 09:22:36 AM 41.6130 -88.4580 60° Northeast 288 331 8,900 -1,500 Descending FlightAware ADS-B
Mon 09:23:02 AM 41.6350 -88.4230 50° Northeast 285 328 8,300 -1,435 Descending FlightAware ADS-B
Mon 09:23:22 AM 41.6510 -88.3960 52° Northeast 284 327 7,800 -1,313 Descending FlightAware ADS-B
Mon 09:23:34 AM 41.6600 -88.3800 53° Northeast 281 323 7,600 -375 Descending FlightAware ADS-B
Mon 09:23:54 AM 41.6750 -88.3530 53° Northeast 283 326 7,600 -162 Level FlightAware ADS-B
Mon 09:24:11 AM 41.6890 -88.3310 50° Northeast 284 327 7,500 -300 Descending FlightAware ADS-B
Mon 09:24:14 AM 41.6950 -88.3260 32° Northeast 284 327 7,500  Level FlightAware ADS-B
Mon 09:24:22 AM 41.7040 -88.3210 23° Northeast 282 325 7,500 -750 Level FlightAware ADS-B
Mon 09:24:30 AM 41.7130 -88.3180 14° North 279 321 7,300 -833 Descending FlightAware ADS-B
Mon 09:24:58 AM 41.7490 -88.3190 359° North 262 302 7,000 -600 Descending FlightAware ADS-B
Mon 09:25:20 AM 41.7730 -88.3210 356° North 251 289 6,800 -514 Descending FlightAware ADS-B
Mon 09:25:33 AM 41.7900 -88.3220 357° North 242 278 6,700 -333 Descending FlightAware ADS-B
Mon 09:25:56 AM 41.8150 -88.3230 358° North 234 269 6,600 -133 Descending FlightAware ADS-B
Mon 09:26:18 AM 41.8380 -88.3250 356° North 213 245 6,600  Level FlightAware ADS-B
Mon 09:26:34 AM 41.8520 -88.3250 360° North 198 228 6,600 -364 Level FlightAware ADS-B
Mon 09:26:51 AM 41.8690 -88.3260 357° North 191 220 6,400 -811 Descending FlightAware ADS-B
Mon 09:27:11 AM 41.8840 -88.3270 357° North 191 220 6,100 -1,000 Descending FlightAware ADS-B
Mon 09:27:33 AM 41.9050 -88.3290 356° North 189 217 5,700 -1,091 Descending FlightAware ADS-B
Mon 09:27:55 AM 41.9240 -88.3310 356° North 187 215 5,300 -1,077 Descending FlightAware ADS-B
Mon 09:28:12 AM 41.9370 -88.3320 357° North 188 216 5,000 -1,231 Descending FlightAware ADS-B
Mon 09:28:34 AM 41.9540 -88.3200 28° Northeast 180 207 4,500 -1,355 Descending FlightAware ADS-B
Mon 09:28:43 AM 41.9570 -88.3120 63° Northeast 177 204 4,300 -1,200 Descending FlightAware ADS-B
Mon 09:28:59 AM 41.9640 -88.2950 61° Northeast 175 201 4,000 -643 Descending FlightAware ADS-B
Mon 09:29:11 AM 41.9660 -88.2870 71° East 166 191 4,000 -300 Level FlightAware ADS-B
Mon 09:29:19 AM 41.9670 -88.2760 83° East 161 185 3,900 -960 Descending FlightAware ADS-B
Mon 09:29:36 AM 41.9670 -88.2580 90° East 160 184 3,600 -462 Descending FlightAware ADS-B
Mon 09:29:58 AM 41.9680 -88.2390 86° East 164 189 3,600  Level FlightAware ADS-B
Mon 09:30:22 AM 41.9680 -88.2140 90° East 163 188 3,600  Level FlightAware ADS-B
Mon 09:30:40 AM 41.9680 -88.1940 90° East 161 185 3,600  Level FlightAware ADS-B
Mon 09:31:11 AM 41.9680 -88.1690 90° East 161 185 3,600 -250 Level FlightAware ADS-B
Mon 09:31:28 AM 41.9680 -88.1450 90° East 166 191 3,400 -769 Descending FlightAware ADS-B
Mon 09:31:50 AM 41.9680 -88.1230 90° East 161 185 3,100 -933 Descending FlightAware ADS-B
Mon 09:32:13 AM 41.9680 -88.1030 90° East 158 182 2,700 -837 Descending FlightAware ADS-B
Mon 09:32:33 AM 41.9690 -88.0830 86° East 149 171 2,500 -732 Descending FlightAware ADS-B
Mon 09:32:54 AM 41.9690 -88.0630 90° East 137 158 2,200 -800 Descending FlightAware ADS-B
Mon 09:33:18 AM 41.9690 -88.0430 90° East 131 151 1,900 -712 Descending FlightAware ADS-B
Mon 09:33:53 AM 41.9690 -88.0160 90° East 123 142 1,500 -655 Descending FlightAware ADS-B
Mon 09:34:13 AM 41.9690 -88.0020 90° East 125 144 1,300 -529 Descending FlightAware ADS-B
Mon 09:34:27 AM 41.9690 -87.9920 90° East 124 143 1,200 -600 Descending FlightAware ADS-B
Mon 09:34:53 AM 41.9690 -87.9710 90° East 125 144 900 -766 Descending FlightAware ADS-B
Mon 09:35:14 AM 41.9690 -87.9540 90° East 125 144 600 -720 Descending FlightAware ADS-B
Mon 09:35:43 AM 41.9690 -87.9300 90° East 126 145 300 -621 Descending FlightAware ADS-B
Mon 09:36:03 AM 41.9690 -87.9170 90° East 86 99 -900 Descending FlightAware ADS-B

Login

Don't have an account? Register now (free) for customized features, flight alerts, and more!